Time;durP1;ratioP1;P1;durP2;ratioP2;P2;SDS_P1;SDS_P2;PMS_P1;PMS_P2;Temp;Humidity;BMP_temperature;BMP_pressure;BME280_temperature;BME280_humidity;BME280_pressure;Samples;Min_cycle;Max_cycle;Signal;HPM_P1;HPM_P2
2023/04/10 00:01:49;;;;;;;21.47;11.20;;;8.10;71.70;;;;;;4975714;28;20438;-73
2023/04/10 00:04:14;;;;;;;17.80;10.20;;;7.90;72.00;;;;;;4973629;28;20450;-73
2023/04/10 00:06:40;;;;;;;16.30;9.30;;;7.80;72.30;;;;;;4979614;28;20585;-72
2023/04/10 00:09:07;;;;;;;16.30;9.47;;;7.80;72.60;;;;;;4980047;28;20737;-72
2023/04/10 00:11:32;;;;;;;15.97;8.90;;;7.80;72.70;;;;;;4973802;28;21380;-73
2023/04/10 00:13:58;;;;;;;17.37;9.83;;;7.70;73.00;;;;;;4980361;28;20426;-74
2023/04/10 00:16:24;;;;;;;15.13;8.40;;;7.70;73.20;;;;;;4976495;28;20585;-74
2023/04/10 00:18:49;;;;;;;21.47;10.20;;;7.60;73.20;;;;;;4983264;28;20208;-73
2023/04/10 00:21:16;;;;;;;16.50;9.20;;;7.50;73.30;;;;;;4982784;28;20194;-72
2023/04/10 00:23:41;;;;;;;18.27;9.87;;;7.40;73.60;;;;;;4979317;28;20191;-72
2023/04/10 00:26:07;;;;;;;15.53;9.43;;;7.30;73.60;;;;;;4979172;28;20464;-73
2023/04/10 00:28:36;;;;;;;20.63;10.63;;;7.30;73.70;;;;;;4985275;28;20679;-72
2023/04/10 00:31:03;;;;;;;20.63;10.17;;;7.20;74.00;;;;;;4984800;28;20252;-73
2023/04/10 00:33:28;;;;;;;19.20;9.47;;;7.20;74.00;;;;;;4984355;28;20430;-72
2023/04/10 00:35:54;;;;;;;15.90;8.70;;;7.10;74.00;;;;;;4989205;28;20540;-72
2023/04/10 00:38:20;;;;;;;19.27;10.17;;;7.20;74.20;;;;;;4981396;28;20208;-74
2023/04/10 00:40:45;;;;;;;17.60;9.10;;;7.10;74.20;;;;;;4978834;28;20237;-72
2023/04/10 00:43:11;;;;;;;14.10;8.70;;;7.00;74.30;;;;;;4988555;28;20434;-72
2023/04/10 00:45:37;;;;;;;15.40;8.77;;;7.00;74.50;;;;;;4983607;28;20247;-73
2023/04/10 00:48:03;;;;;;;18.57;9.00;;;7.00;74.50;;;;;;4991140;28;20241;-73
2023/04/10 00:50:29;;;;;;;16.80;8.77;;;6.90;74.50;;;;;;4980858;28;20466;-74
2023/04/10 00:52:56;;;;;;;16.63;9.43;;;6.90;74.50;;;;;;4998235;28;20422;-72
2023/04/10 00:55:22;;;;;;;19.03;9.97;;;6.80;74.60;;;;;;4978567;28;20202;-74
2023/04/10 00:57:47;;;;;;;18.33;9.30;;;6.80;74.60;;;;;;4976184;28;20426;-74
2023/04/10 01:00:15;;;;;;;18.33;8.77;;;6.70;74.60;;;;;;4980804;28;20429;-72
2023/04/10 01:02:40;;;;;;;19.33;9.10;;;6.70;74.80;;;;;;4979196;28;20202;-74
2023/04/10 01:05:08;;;;;;;17.63;9.80;;;6.60;74.80;;;;;;4976701;28;20466;-73
2023/04/10 01:07:52;;;;;;;19.30;10.30;;;6.60;74.80;;;;;;4976334;28;20826;-73
2023/04/10 01:10:28;;;;;;;16.43;9.50;;;6.50;75.10;;;;;;4968506;28;20462;-73
2023/04/10 01:12:56;;;;;;;19.13;10.13;;;6.50;75.10;;;;;;4972617;28;20414;-72
2023/04/10 01:15:25;;;;;;;16.70;10.50;;;6.40;75.10;;;;;;4972303;28;20465;-73
2023/04/10 01:18:20;;;;;;;19.77;10.07;;;6.40;75.20;;;;;;4984479;28;20513;-72
2023/04/10 01:20:46;;;;;;;20.90;9.80;;;6.30;75.40;;;;;;4974485;28;20415;-73
2023/04/10 01:23:35;;;;;;;18.00;9.50;;;6.30;75.40;;;;;;4973530;28;20430;-73
2023/04/10 01:26:12;;;;;;;21.17;10.30;;;6.30;75.50;;;;;;4979013;28;20349;-74
2023/04/10 01:28:59;;;;;;;23.23;9.57;;;6.30;75.50;;;;;;4975264;28;20425;-73
2023/04/10 01:31:58;;;;;;;15.67;8.60;;;6.30;75.50;;;;;;4972754;28;20466;-72
2023/04/10 01:34:31;;;;;;;20.53;9.27;;;6.20;75.50;;;;;;4968306;28;20459;-72
2023/04/10 01:37:04;;;;;;;21.70;10.30;;;6.20;75.70;;;;;;4975303;28;20422;-72
2023/04/10 01:39:32;;;;;;;16.70;10.10;;;6.10;75.80;;;;;;4981127;28;20437;-73
2023/04/10 01:41:59;;;;;;;21.83;10.77;;;6.10;75.80;;;;;;4983824;28;20434;-73
2023/04/10 01:44:28;;;;;;;23.50;11.77;;;6.10;75.90;;;;;;4977629;28;21938;-73
2023/04/10 01:46:56;;;;;;;18.50;10.03;;;6.00;76.10;;;;;;4986363;28;20423;-73
2023/04/10 01:49:27;;;;;;;18.83;9.93;;;6.00;76.50;;;;;;4981327;28;20438;-75
2023/04/10 01:51:57;;;;;;;17.03;9.03;;;6.00;76.50;;;;;;4978828;28;20529;-74
2023/04/10 01:54:26;;;;;;;20.87;10.17;;;6.00;76.20;;;;;;4970640;28;20494;-74
2023/04/10 01:56:51;;;;;;;22.30;10.10;;;6.00;76.10;;;;;;4973863;28;20804;-73
2023/04/10 01:59:17;;;;;;;17.07;9.40;;;5.90;76.10;;;;;;4979772;28;20422;-74
2023/04/10 02:01:43;;;;;;;20.47;10.17;;;5.90;76.10;;;;;;4982397;28;20187;-73
2023/04/10 02:04:08;;;;;;;17.47;9.57;;;5.80;76.20;;;;;;4972408;28;20525;-73
2023/04/10 02:07:03;;;;;;;23.33;11.63;;;5.80;76.20;;;;;;4974142;28;20589;-72
2023/04/10 02:09:57;;;;;;;19.63;10.10;;;5.80;76.40;;;;;;4973089;28;20198;-73
2023/04/10 02:12:40;;;;;;;20.03;11.00;;;5.80;77.00;;;;;;4973533;28;20514;-74
2023/04/10 02:15:09;;;;;;;22.70;10.37;;;5.80;76.80;;;;;;4968092;28;20577;-74
2023/04/10 02:17:37;;;;;;;25.33;12.00;;;5.80;76.80;;;;;;4975952;28;20541;-72
2023/04/10 02:20:05;;;;;;;21.07;10.73;;;5.70;76.80;;;;;;4971444;28;20415;-73
2023/04/10 02:22:31;;;;;;;21.90;10.80;;;5.70;77.10;;;;;;4971720;28;20422;-73
2023/04/10 02:24:57;;;;;;;17.97;10.80;;;5.70;77.30;;;;;;4970589;28;20458;-73
2023/04/10 02:27:30;;;;;;;21.80;10.30;;;5.70;77.10;;;;;;4976224;28;20418;-74
2023/04/10 02:29:56;;;;;;;19.83;10.00;;;5.70;76.80;;;;;;4971871;28;20922;-73
2023/04/10 02:32:22;;;;;;;19.37;9.10;;;5.80;76.70;;;;;;4976641;28;20425;-73
2023/04/10 02:34:48;;;;;;;19.73;9.90;;;5.80;76.70;;;;;;4973081;28;20210;-74
2023/04/10 02:37:14;;;;;;;18.77;9.57;;;5.70;76.50;;;;;;4978529;28;20439;-73
2023/04/10 02:39:40;;;;;;;16.47;9.53;;;5.70;76.40;;;;;;4971660;28;20187;-73
2023/04/10 02:42:06;;;;;;;18.20;9.07;;;5.70;76.20;;;;;;4978717;28;20171;-73
2023/04/10 02:44:31;;;;;;;13.77;8.47;;;5.70;76.20;;;;;;4973313;28;20455;-73
2023/04/10 02:46:57;;;;;;;18.03;8.87;;;5.70;76.10;;;;;;4980644;28;20183;-73
2023/04/10 02:49:22;;;;;;;21.17;9.67;;;5.70;76.10;;;;;;4979337;28;20318;-73
2023/04/10 02:51:48;;;;;;;16.57;8.40;;;5.70;76.10;;;;;;4981586;28;20273;-73
2023/04/10 02:54:13;;;;;;;16.67;8.43;;;5.70;76.10;;;;;;4975614;28;20262;-73
2023/04/10 02:56:39;;;;;;;18.27;10.23;;;5.60;76.20;;;;;;4974651;28;20187;-73
2023/04/10 02:59:05;;;;;;;20.80;9.80;;;5.60;76.20;;;;;;4982244;28;20223;-73
2023/04/10 03:01:30;;;;;;;22.40;10.47;;;5.50;76.50;;;;;;4979986;28;20619;-73
2023/04/10 03:03:56;;;;;;;28.20;11.17;;;5.40;77.30;;;;;;4979186;28;20191;-72
2023/04/10 03:06:25;;;;;;;19.97;10.47;;;5.40;77.60;;;;;;4976502;28;20273;-73
2023/04/10 03:08:51;;;;;;;20.23;11.07;;;5.30;77.60;;;;;;4975381;28;20189;-73
2023/04/10 03:11:17;;;;;;;17.33;9.40;;;5.30;77.80;;;;;;4974425;28;20462;-73
2023/04/10 03:13:43;;;;;;;18.37;9.13;;;5.30;78.00;;;;;;4975969;28;20933;-73
2023/04/10 03:16:08;;;;;;;21.30;11.10;;;5.30;78.00;;;;;;4973257;28;20266;-73
2023/04/10 03:18:34;;;;;;;19.00;10.03;;;5.30;78.10;;;;;;4979401;28;20195;-73
2023/04/10 03:21:01;;;;;;;22.27;9.50;;;5.40;78.10;;;;;;4974339;28;20274;-74
2023/04/10 03:23:27;;;;;;;17.20;8.93;;;5.50;78.00;;;;;;4976101;28;20833;-73
2023/04/10 03:25:53;;;;;;;20.53;10.43;;;5.50;77.60;;;;;;4973185;28;20473;-72
2023/04/10 03:28:22;;;;;;;16.43;8.60;;;5.50;77.40;;;;;;4978667;28;20267;-72
2023/04/10 03:30:51;;;;;;;15.17;7.40;;;5.40;77.30;;;;;;4973449;28;20897;-73
2023/04/10 03:33:16;;;;;;;18.83;8.07;;;5.40;77.30;;;;;;4979743;28;20418;-74
2023/04/10 03:35:42;;;;;;;25.90;12.47;;;5.40;77.10;;;;;;4974832;28;20507;-73
2023/04/10 03:38:07;;;;;;;19.10;10.00;;;5.40;77.30;;;;;;4982497;28;20202;-73
2023/04/10 03:40:33;;;;;;;20.23;11.47;;;5.30;77.80;;;;;;4974607;28;20191;-73
2023/04/10 03:42:59;;;;;;;19.43;9.87;;;5.20;78.10;;;;;;4977788;28;20187;-72
2023/04/10 03:45:25;;;;;;;22.10;11.30;;;5.10;78.40;;;;;;4974793;28;20214;-72
2023/04/10 03:47:51;;;;;;;23.40;11.93;;;5.20;78.60;;;;;;4981976;28;20423;-73
2023/04/10 03:50:17;;;;;;;21.03;10.47;;;5.10;78.60;;;;;;4985488;28;20208;-74
2023/04/10 03:52:43;;;;;;;21.53;10.50;;;5.10;78.70;;;;;;4977590;28;20526;-73
2023/04/10 03:55:08;;;;;;;16.73;9.83;;;5.10;79.00;;;;;;4980237;28;20217;-73
2023/04/10 03:57:34;;;;;;;17.53;9.40;;;5.10;78.90;;;;;;4986060;28;20289;-73
2023/04/10 04:00:00;;;;;;;18.10;9.73;;;5.10;78.60;;;;;;4984814;28;20210;-72
2023/04/10 04:02:25;;;;;;;18.40;9.57;;;5.20;78.30;;;;;;4979254;28;20298;-73
2023/04/10 04:04:51;;;;;;;17.40;9.20;;;5.20;78.10;;;;;;4981936;28;20268;-73
2023/04/10 04:07:17;;;;;;;16.00;8.57;;;5.30;78.40;;;;;;4981060;28;20194;-73
2023/04/10 04:09:43;;;;;;;17.50;9.07;;;5.30;78.30;;;;;;4993706;28;20422;-74
2023/04/10 04:12:09;;;;;;;20.33;8.93;;;5.30;78.30;;;;;;4989796;28;20208;-73
2023/04/10 04:14:34;;;;;;;16.73;8.57;;;5.30;78.30;;;;;;4980153;28;20819;-73
2023/04/10 04:17:00;;;;;;;16.33;8.47;;;5.20;78.40;;;;;;4987736;28;20191;-72
2023/04/10 04:19:26;;;;;;;18.87;9.53;;;5.30;78.40;;;;;;4985611;28;20195;-73
2023/04/10 04:21:51;;;;;;;19.00;8.47;;;5.30;78.30;;;;;;4979309;28;20263;-73
2023/04/10 04:24:17;;;;;;;17.23;8.43;;;5.30;78.30;;;;;;4981505;28;20207;-73
2023/04/10 04:26:42;;;;;;;18.70;8.90;;;5.30;78.30;;;;;;4979922;28;20191;-73
2023/04/10 04:29:08;;;;;;;17.00;9.20;;;5.30;78.30;;;;;;4974127;28;20219;-73
2023/04/10 04:31:33;;;;;;;16.63;9.17;;;5.30;78.30;;;;;;4974018;28;20222;-73
2023/04/10 04:33:59;;;;;;;17.90;9.30;;;5.40;78.30;;;;;;4974200;28;20179;-73
2023/04/10 04:36:26;;;;;;;16.43;9.17;;;5.40;78.10;;;;;;4975465;28;20217;-74
2023/04/10 04:38:52;;;;;;;22.30;9.30;;;5.40;78.10;;;;;;4985023;28;20449;-73
2023/04/10 04:41:18;;;;;;;27.20;12.67;;;5.40;78.10;;;;;;4973302;28;20522;-74
2023/04/10 04:43:43;;;;;;;21.87;11.47;;;5.40;78.30;;;;;;4974428;28;20809;-74
2023/04/10 04:46:09;;;;;;;24.17;10.80;;;5.40;78.10;;;;;;4972254;28;20677;-72
2023/04/10 04:48:35;;;;;;;24.10;13.03;;;5.30;78.30;;;;;;4976316;28;20554;-73
2023/04/10 04:51:00;;;;;;;22.53;11.33;;;5.40;78.40;;;;;;4975320;28;20224;-73
2023/04/10 04:53:26;;;;;;;19.20;10.30;;;5.30;78.40;;;;;;4975745;28;20299;-73
2023/04/10 04:55:52;;;;;;;21.17;10.63;;;5.20;78.30;;;;;;4972945;28;20293;-73
2023/04/10 04:58:19;;;;;;;25.70;11.43;;;5.20;78.00;;;;;;4973301;28;20207;-74
2023/04/10 05:00:44;;;;;;;23.73;12.20;;;5.20;78.30;;;;;;4974551;28;20186;-73
2023/04/10 05:03:10;;;;;;;20.47;10.30;;;5.20;78.30;;;;;;4975460;28;20492;-73
2023/04/10 05:05:35;;;;;;;22.07;10.63;;;5.20;78.40;;;;;;4972304;28;20227;-74
2023/04/10 05:08:01;;;;;;;22.73;10.87;;;5.20;78.40;;;;;;4973755;28;20210;-73
2023/04/10 05:10:27;;;;;;;20.70;10.83;;;5.10;78.30;;;;;;4993373;28;20238;-74
2023/04/10 05:12:52;;;;;;;23.37;11.50;;;5.10;78.40;;;;;;4993462;28;20187;-73
2023/04/10 05:15:18;;;;;;;21.67;10.03;;;5.20;78.40;;;;;;4990431;28;20303;-74
2023/04/10 05:17:43;;;;;;;23.90;11.27;;;5.20;78.30;;;;;;4991770;28;20187;-73
2023/04/10 05:20:10;;;;;;;19.87;11.43;;;5.30;78.10;;;;;;4992271;28;20218;-72
2023/04/10 05:22:35;;;;;;;19.40;10.60;;;5.30;78.30;;;;;;4989940;28;20199;-73
2023/04/10 05:25:01;;;;;;;24.60;12.20;;;5.30;78.40;;;;;;4987536;28;20458;-74
2023/04/10 05:27:27;;;;;;;25.97;11.87;;;5.20;78.00;;;;;;4995523;28;20187;-73
2023/04/10 05:29:52;;;;;;;21.23;11.70;;;5.30;78.30;;;;;;4995026;28;20195;-74
2023/04/10 05:32:18;;;;;;;23.07;11.87;;;5.40;78.40;;;;;;4979012;28;20433;-73
2023/04/10 05:34:43;;;;;;;20.93;9.90;;;5.50;78.10;;;;;;4972586;28;20206;-73
2023/04/10 05:37:11;;;;;;;25.47;12.23;;;5.60;78.00;;;;;;4973216;28;20222;-74
2023/04/10 05:39:37;;;;;;;25.97;12.53;;;5.70;77.70;;;;;;4978494;28;20175;-73
2023/04/10 05:42:02;;;;;;;21.97;10.50;;;5.80;77.10;;;;;;4980943;28;20496;-73
2023/04/10 05:44:29;;;;;;;22.30;10.20;;;5.90;76.70;;;;;;4972035;28;20259;-73
2023/04/10 05:46:55;;;;;;;21.73;11.73;;;6.00;76.50;;;;;;4974885;28;20245;-73
2023/04/10 05:49:20;;;;;;;18.70;10.97;;;6.00;76.10;;;;;;4977264;28;21132;-73
2023/04/10 05:51:49;;;;;;;25.10;11.80;;;6.00;76.50;;;;;;4981025;28;20642;-73
2023/04/10 05:54:15;;;;;;;27.20;12.03;;;6.10;76.20;;;;;;4969911;28;20752;-73
2023/04/10 05:56:41;;;;;;;30.53;13.90;;;6.20;75.80;;;;;;4973584;28;20449;-72
2023/04/10 05:59:06;;;;;;;25.20;13.50;;;6.30;75.70;;;;;;4974219;28;20427;-72
2023/04/10 06:01:32;;;;;;;23.43;11.80;;;6.30;75.20;;;;;;4972599;28;20223;-72
2023/04/10 06:03:58;;;;;;;20.10;10.30;;;6.40;75.20;;;;;;4970906;28;20187;-73
2023/04/10 06:06:25;;;;;;;22.03;11.10;;;6.40;74.80;;;;;;4969950;28;20206;-73
2023/04/10 06:08:51;;;;;;;18.97;10.63;;;6.50;74.60;;;;;;4973493;28;20195;-73
2023/04/10 06:11:17;;;;;;;22.00;10.37;;;6.50;74.80;;;;;;4974561;28;21000;-73
2023/04/10 06:13:42;;;;;;;17.57;10.93;;;6.60;74.50;;;;;;4973284;28;20423;-74
2023/04/10 06:16:09;;;;;;;21.23;10.77;;;6.60;74.30;;;;;;4969848;28;20578;-72
2023/04/10 06:18:36;;;;;;;26.47;11.00;;;6.60;74.20;;;;;;4971012;28;20510;-74
2023/04/10 06:21:02;;;;;;;23.87;11.20;;;6.60;74.00;;;;;;4971964;28;20246;-73
2023/04/10 06:23:28;;;;;;;24.60;12.10;;;6.60;74.20;;;;;;4973045;28;20426;-73
2023/04/10 06:25:54;;;;;;;24.13;11.27;;;6.70;74.00;;;;;;4974455;28;20623;-72
2023/04/10 06:28:20;;;;;;;25.43;13.10;;;6.70;74.00;;;;;;4973154;28;20206;-73
2023/04/10 06:30:45;;;;;;;20.10;10.87;;;6.70;74.00;;;;;;4972141;28;20490;-73
2023/04/10 06:33:11;;;;;;;21.77;10.43;;;6.80;73.90;;;;;;4979455;28;20313;-73
2023/04/10 06:35:37;;;;;;;19.00;10.13;;;6.80;73.70;;;;;;4975397;28;20225;-73
2023/04/10 06:38:03;;;;;;;21.77;10.10;;;6.80;73.90;;;;;;4977738;28;20202;-73
2023/04/10 06:40:29;;;;;;;23.40;12.50;;;6.80;73.90;;;;;;4971308;28;20971;-74
2023/04/10 06:42:55;;;;;;;32.40;14.17;;;6.80;73.90;;;;;;4978138;28;20455;-73
2023/04/10 06:45:21;;;;;;;21.90;11.83;;;6.90;73.70;;;;;;4973187;28;20501;-73
2023/04/10 06:47:47;;;;;;;20.17;10.23;;;7.00;73.60;;;;;;4977507;28;20500;-72
2023/04/10 06:50:12;;;;;;;21.13;10.63;;;6.90;73.20;;;;;;4981480;28;20268;-74
2023/04/10 06:52:38;;;;;;;24.03;10.67;;;6.90;73.20;;;;;;4990678;28;20242;-74
2023/04/10 06:55:04;;;;;;;20.27;10.50;;;7.00;73.20;;;;;;4974931;28;20214;-72
2023/04/10 06:57:30;;;;;;;21.40;10.73;;;7.00;72.90;;;;;;4975072;28;20289;-73
2023/04/10 06:59:56;;;;;;;20.27;9.90;;;7.10;72.90;;;;;;4975739;28;20510;-73
2023/04/10 07:02:21;;;;;;;19.97;10.77;;;7.30;72.40;;;;;;4979525;28;20230;-73
2023/04/10 07:04:47;;;;;;;19.47;9.80;;;7.40;72.30;;;;;;4976701;28;20461;-72
2023/04/10 07:07:14;;;;;;;18.77;10.03;;;7.40;72.10;;;;;;4977791;28;20195;-73
2023/04/10 07:09:40;;;;;;;19.77;10.30;;;7.50;71.70;;;;;;4978616;28;20180;-73
2023/04/10 07:12:06;;;;;;;23.40;9.07;;;7.70;71.40;;;;;;4975063;28;20472;-73
2023/04/10 07:14:35;;;;;;;22.90;11.00;;;7.80;71.40;;;;;;4972404;28;20207;-74
2023/04/10 07:17:02;;;;;;;19.83;10.83;;;8.00;71.10;;;;;;4979713;28;20180;-73
2023/04/10 07:19:27;;;;;;;20.57;10.90;;;8.20;70.50;;;;;;4979516;28;20427;-74
2023/04/10 07:21:53;;;;;;;20.80;10.63;;;8.40;70.40;;;;;;4980826;28;20438;-73
2023/04/10 07:24:18;;;;;;;21.50;11.53;;;8.50;69.90;;;;;;4976558;28;20210;-75
2023/04/10 07:26:45;;;;;;;21.33;11.70;;;8.50;69.70;;;;;;4985901;28;20235;-73
2023/04/10 07:29:11;;;;;;;17.27;10.60;;;8.60;69.70;;;;;;4987123;28;20323;-73
2023/04/10 07:31:37;;;;;;;18.20;10.63;;;8.70;68.90;;;;;;4985313;28;20462;-73
2023/04/10 07:34:03;;;;;;;21.03;10.73;;;8.80;68.60;;;;;;4991371;28;20427;-73
2023/04/10 07:36:28;;;;;;;24.10;12.07;;;8.90;68.60;;;;;;4992168;28;20191;-74
2023/04/10 07:38:55;;;;;;;19.90;10.83;;;9.00;68.60;;;;;;4993334;28;20327;-73
2023/04/10 07:41:21;;;;;;;18.90;10.73;;;9.20;68.30;;;;;;4983724;28;20218;-73
2023/04/10 07:43:47;;;;;;;26.00;10.60;;;9.30;68.20;;;;;;4980960;28;21137;-73
2023/04/10 07:46:13;;;;;;;20.40;11.07;;;9.30;68.00;;;;;;4974843;28;21007;-73
2023/04/10 07:48:38;;;;;;;20.33;11.63;;;9.40;68.00;;;;;;4974708;28;20430;-74
2023/04/10 07:51:08;;;;;;;18.60;10.27;;;9.50;67.90;;;;;;4975152;28;20211;-74
2023/04/10 07:53:33;;;;;;;18.90;9.40;;;9.70;67.50;;;;;;4977852;28;20275;-73
2023/04/10 07:55:59;;;;;;;13.60;7.90;;;9.80;66.30;;;;;;4971109;28;20885;-73
2023/04/10 07:58:25;;;;;;;9.83;6.20;;;9.90;65.40;;;;;;4977988;28;20179;-72
2023/04/10 08:00:50;;;;;;;17.63;8.47;;;10.10;62.20;;;;;;4973558;28;20187;-72
2023/04/10 08:03:16;;;;;;;12.27;6.37;;;10.20;62.50;;;;;;4976453;28;20191;-74
2023/04/10 08:05:42;;;;;;;11.07;6.50;;;10.50;60.10;;;;;;4975590;28;20224;-73
2023/04/10 08:08:07;;;;;;;11.27;5.73;;;10.70;59.10;;;;;;4986656;28;20182;-74
2023/04/10 08:10:36;;;;;;;10.23;5.87;;;10.80;58.20;;;;;;4976363;28;20291;-73
2023/04/10 08:13:02;;;;;;;10.73;5.70;;;11.00;58.00;;;;;;4978972;28;20188;-73
2023/04/10 08:15:27;;;;;;;11.50;6.30;;;11.10;57.00;;;;;;4973873;28;20874;-73
2023/04/10 08:17:53;;;;;;;10.87;6.07;;;11.20;56.90;;;;;;4986040;28;20654;-74
2023/04/10 08:20:19;;;;;;;8.47;5.20;;;11.30;56.90;;;;;;4979344;28;20729;-73
2023/04/10 08:22:44;;;;;;;11.90;6.40;;;11.40;56.80;;;;;;4977227;28;20222;-73
2023/04/10 08:25:10;;;;;;;13.93;5.83;;;11.50;56.60;;;;;;4979770;28;20217;-73
2023/04/10 08:27:36;;;;;;;12.87;6.40;;;11.60;56.50;;;;;;4978838;28;20278;-74
2023/04/10 08:30:02;;;;;;;10.40;5.70;;;11.80;55.30;;;;;;4975338;28;20211;-73
2023/04/10 08:32:28;;;;;;;9.20;5.27;;;11.90;55.30;;;;;;4978151;28;20453;-73
2023/04/10 08:34:53;;;;;;;10.60;5.97;;;12.00;55.00;;;;;;4970381;28;20246;-72
2023/04/10 08:37:20;;;;;;;9.23;5.70;;;12.10;54.60;;;;;;4974218;28;20237;-73
2023/04/10 08:39:45;;;;;;;7.63;5.03;;;12.20;54.10;;;;;;4977825;28;20726;-73
2023/04/10 08:42:11;;;;;;;8.13;4.80;;;12.30;53.70;;;;;;4979679;28;20508;-73
2023/04/10 08:44:37;;;;;;;8.87;5.37;;;12.30;52.80;;;;;;4972888;28;20210;-74
2023/04/10 08:47:05;;;;;;;10.80;5.57;;;12.30;53.00;;;;;;4975687;28;20191;-73
2023/04/10 08:49:40;;;;;;;9.20;5.10;;;12.40;53.40;;;;;;4972803;28;20435;-73
2023/04/10 08:52:08;;;;;;;9.83;4.97;;;12.50;52.40;;;;;;4970869;28;20473;-74
2023/04/10 08:54:37;;;;;;;8.93;4.80;;;12.60;52.20;;;;;;4981867;28;20557;-73
2023/04/10 08:57:06;;;;;;;6.87;4.80;;;12.70;52.10;;;;;;4976522;28;21068;-74
2023/04/10 08:59:31;;;;;;;6.73;4.17;;;12.80;51.80;;;;;;4972479;28;20426;-74
2023/04/10 09:01:58;;;;;;;7.53;4.63;;;12.90;51.60;;;;;;4973758;28;20437;-73
2023/04/10 09:04:24;;;;;;;8.47;4.90;;;12.90;50.70;;;;;;4971062;28;20247;-74
2023/04/10 09:06:51;;;;;;;8.70;5.00;;;12.90;50.70;;;;;;4977702;28;20449;-74
2023/04/10 09:09:17;;;;;;;8.53;4.40;;;13.00;51.00;;;;;;4974032;28;20434;-74
2023/04/10 09:11:54;;;;;;;8.27;4.53;;;13.00;50.90;;;;;;4972335;28;20903;-75
2023/04/10 09:14:24;;;;;;;6.17;4.50;;;13.10;50.70;;;;;;4970558;28;20206;-74
2023/04/10 09:16:51;;;;;;;6.20;3.90;;;13.20;49.70;;;;;;4976799;28;20434;-74
2023/04/10 09:19:33;;;;;;;6.30;4.23;;;13.30;49.40;;;;;;4986924;28;20973;-75
2023/04/10 09:21:59;;;;;;;6.83;4.10;;;13.40;48.90;;;;;;4977589;28;20542;-75
2023/04/10 09:24:25;;;;;;;5.73;4.20;;;13.50;48.90;;;;;;4972563;28;20471;-74
2023/04/10 09:26:51;;;;;;;6.57;3.93;;;13.60;48.60;;;;;;4979053;28;20419;-73
2023/04/10 09:29:16;;;;;;;6.07;4.03;;;13.60;48.60;;;;;;4983979;28;20916;-74
2023/04/10 09:31:45;;;;;;;7.23;3.90;;;13.70;48.30;;;;;;4975310;28;20203;-75
2023/04/10 09:34:17;;;;;;;6.30;3.90;;;13.70;48.10;;;;;;4974546;28;20184;-75
2023/04/10 09:36:56;;;;;;;7.20;4.70;;;13.80;47.40;;;;;;4974973;28;20465;-74
2023/04/10 09:39:32;;;;;;;7.40;4.20;;;13.80;47.10;;;;;;4980948;28;20450;-74
2023/04/10 09:41:57;;;;;;;7.70;4.83;;;13.90;47.70;;;;;;4987209;28;20979;-74
2023/04/10 09:44:32;;;;;;;8.00;3.83;;;14.00;47.70;;;;;;4978108;28;20549;-74
2023/04/10 09:47:18;;;;;;;4.63;3.67;;;14.10;47.00;;;;;;4977884;28;20189;-75
2023/04/10 09:50:01;;;;;;;8.37;4.30;;;14.20;46.90;;;;;;4984789;28;20519;-74
2023/04/10 09:52:32;;;;;;;7.13;3.63;;;14.30;46.20;;;;;;4976439;28;20432;-74
2023/04/10 09:55:03;;;;;;;6.93;4.37;;;14.40;45.80;;;;;;4982364;28;21024;-75
2023/04/10 09:57:30;;;;;;;7.67;4.20;;;14.50;45.90;;;;;;4977386;28;20428;-73
2023/04/10 09:59:59;;;;;;;6.93;4.20;;;14.50;46.20;;;;;;4980871;28;20433;-74
2023/04/10 10:02:29;;;;;;;5.50;3.60;;;14.60;45.70;;;;;;4984210;28;20425;-74
2023/04/10 10:04:55;;;;;;;6.40;3.97;;;14.70;45.50;;;;;;4985338;28;21230;-73
2023/04/10 10:07:22;;;;;;;6.17;3.80;;;14.80;45.30;;;;;;5011799;28;20427;-73
2023/04/10 10:09:51;;;;;;;8.87;4.40;;;14.90;45.10;;;;;;4978491;28;20791;-74
2023/04/10 10:12:22;;;;;;;6.70;3.90;;;15.00;44.90;;;;;;4986237;28;20465;-74
2023/04/10 10:15:07;;;;;;;8.73;3.80;;;15.00;44.30;;;;;;4988483;28;20532;-73
2023/04/10 10:17:45;;;;;;;6.87;3.73;;;15.00;44.30;;;;;;4979271;28;20510;-72
2023/04/10 10:20:12;;;;;;;5.07;3.37;;;15.10;44.20;;;;;;4977961;28;20459;-74
2023/04/10 10:22:38;;;;;;;5.67;3.60;;;15.30;43.80;;;;;;4979741;28;20446;-75
2023/04/10 10:25:05;;;;;;;5.53;3.53;;;15.40;42.80;;;;;;4981390;28;20520;-75
2023/04/10 10:27:35;;;;;;;4.53;2.73;;;15.60;42.70;;;;;;4979154;28;20434;-73
2023/04/10 10:30:02;;;;;;;6.43;4.07;;;15.80;42.20;;;;;;4985002;28;20516;-75
2023/04/10 10:32:29;;;;;;;7.67;3.60;;;16.00;41.20;;;;;;4986411;28;20506;-73
2023/04/10 10:34:56;;;;;;;5.23;3.10;;;16.10;40.80;;;;;;4982739;28;20445;-75
2023/04/10 10:37:22;;;;;;;5.90;2.97;;;16.20;39.90;;;;;;4986635;28;20445;-74
2023/04/10 10:40:15;;;;;;;3.90;2.60;;;16.40;38.40;;;;;;4987150;28;20508;-74
2023/04/10 10:42:52;;;;;;;4.10;2.73;;;16.50;35.70;;;;;;4982006;28;20426;-74
2023/04/10 10:45:24;;;;;;;5.67;2.70;;;16.60;35.50;;;;;;4978152;28;20458;-73
2023/04/10 10:47:53;;;;;;;3.63;2.50;;;17.00;34.40;;;;;;4988549;28;20510;-74
2023/04/10 10:50:21;;;;;;;3.10;2.17;;;17.30;32.00;;;;;;4983871;28;20476;-75
2023/04/10 10:52:52;;;;;;;3.23;2.20;;;17.50;31.90;;;;;;4981348;28;20449;-75
2023/04/10 10:55:21;;;;;;;4.77;2.97;;;17.30;32.70;;;;;;4980933;28;20494;-74
2023/04/10 10:58:08;;;;;;;3.50;2.27;;;17.30;32.50;;;;;;4981508;28;20484;-75
2023/04/10 11:00:56;;;;;;;2.97;2.20;;;17.40;32.50;;;;;;4980239;28;20502;-73
2023/04/10 11:03:21;;;;;;;4.20;2.30;;;17.40;30.50;;;;;;4976472;28;20427;-74
2023/04/10 11:05:54;;;;;;;3.17;1.90;;;17.20;30.80;;;;;;4997044;28;20802;-75
2023/04/10 11:08:32;;;;;;;2.53;2.00;;;17.20;30.80;;;;;;4985819;28;20193;-73
2023/04/10 11:11:00;;;;;;;2.70;2.00;;;17.20;31.20;;;;;;4983749;28;20472;-75
2023/04/10 11:13:25;;;;;;;2.80;1.63;;;17.40;30.40;;;;;;4990447;28;20860;-74
2023/04/10 11:15:51;;;;;;;3.20;1.83;;;17.30;30.40;;;;;;4986999;28;20490;-73
2023/04/10 11:18:19;;;;;;;3.70;1.83;;;17.50;29.70;;;;;;4991165;28;20180;-74
2023/04/10 11:21:08;;;;;;;2.53;1.93;;;17.70;30.10;;;;;;4983455;28;20330;-73
2023/04/10 11:23:34;;;;;;;4.53;2.10;;;17.90;29.30;;;;;;4980023;28;20440;-74
2023/04/10 11:26:00;;;;;;;3.77;2.57;;;17.90;29.20;;;;;;4977804;28;20517;-74
2023/04/10 11:28:32;;;;;;;3.13;2.30;;;18.00;29.30;;;;;;4983952;28;20452;-76
2023/04/10 11:31:14;;;;;;;3.07;2.10;;;18.20;29.60;;;;;;4982015;28;20472;-74
2023/04/10 11:33:40;;;;;;;3.33;2.00;;;18.60;29.10;;;;;;4985785;28;20425;-76
2023/04/10 11:36:06;;;;;;;4.03;2.40;;;19.00;29.00;;;;;;4982103;28;20521;-75
2023/04/10 11:38:33;;;;;;;3.70;1.90;;;19.30;28.40;;;;;;4988922;28;20207;-76
2023/04/10 11:41:04;;;;;;;3.00;2.17;;;19.40;27.30;;;;;;4978809;28;20426;-76
2023/04/10 11:43:31;;;;;;;3.30;1.90;;;19.50;27.30;;;;;;4981894;28;20427;-75
2023/04/10 11:46:01;;;;;;;2.53;1.93;;;19.60;26.80;;;;;;4974051;28;20469;-76
2023/04/10 11:48:28;;;;;;;2.07;1.60;;;19.80;26.50;;;;;;4978542;28;20431;-74
2023/04/10 11:50:54;;;;;;;1.93;1.70;;;19.80;26.10;;;;;;4974716;28;20463;-75
2023/04/10 11:53:20;;;;;;;2.00;1.60;;;19.60;26.30;;;;;;4975839;28;20427;-75
2023/04/10 11:55:46;;;;;;;2.90;1.73;;;19.60;25.90;;;;;;4976263;28;20450;-74
2023/04/10 11:58:41;;;;;;;2.60;1.70;;;19.70;25.80;;;;;;4976205;28;20431;-75
2023/04/10 12:01:13;;;;;;;2.00;1.50;;;19.90;25.40;;;;;;4906225;29;20433;-74
2023/04/10 12:03:40;;;;;;;3.20;1.77;;;20.10;24.50;;;;;;4898435;29;20492;-74
2023/04/10 12:06:11;;;;;;;2.63;1.80;;;20.30;24.80;;;;;;4898353;29;20471;-74
2023/04/10 12:08:39;;;;;;;2.97;1.90;;;20.20;25.30;;;;;;4896934;29;20558;-74
2023/04/10 12:11:06;;;;;;;2.60;1.57;;;20.00;26.20;;;;;;4896547;29;20626;-74
2023/04/10 12:13:32;;;;;;;2.63;1.60;;;20.10;25.00;;;;;;4896316;29;20430;-73
2023/04/10 12:16:00;;;;;;;2.00;1.40;;;20.20;24.20;;;;;;4894278;29;20470;-75
2023/04/10 12:18:28;;;;;;;2.27;1.57;;;20.30;24.50;;;;;;4903252;29;20992;-74
2023/04/10 12:20:56;;;;;;;2.00;1.23;;;20.60;23.60;;;;;;4896541;29;20497;-74
2023/04/10 12:23:28;;;;;;;2.40;1.20;;;20.50;22.80;;;;;;4896592;29;20433;-74
2023/04/10 12:26:10;;;;;;;1.87;1.20;;;20.40;22.50;;;;;;4897974;29;20506;-74
2023/04/10 12:28:39;;;;;;;1.83;1.20;;;20.60;22.20;;;;;;4897108;29;20565;-74
2023/04/10 12:31:05;;;;;;;2.63;1.23;;;21.00;21.60;;;;;;4898639;29;20480;-75
2023/04/10 12:33:31;;;;;;;1.83;1.33;;;21.10;21.80;;;;;;4899557;29;20437;-74
2023/04/10 12:35:58;;;;;;;3.00;1.20;;;21.00;22.20;;;;;;4886508;29;20459;-75
2023/04/10 12:38:43;;;;;;;1.67;1.27;;;20.60;22.70;;;;;;4972084;28;20213;-74
2023/04/10 12:41:10;;;;;;;2.37;1.20;;;20.70;23.30;;;;;;4973916;28;20433;-73
2023/04/10 12:43:41;;;;;;;1.60;1.23;;;21.10;23.00;;;;;;4988746;28;20486;-75
2023/04/10 12:46:20;;;;;;;1.80;1.33;;;21.40;22.30;;;;;;4981920;28;20847;-75
2023/04/10 12:48:46;;;;;;;3.40;1.50;;;21.30;22.50;;;;;;4979937;28;20576;-74